RYR50ZE LFMU-EGGW
Flight info
| Callsign | RYR50ZE |
|---|---|
| Flight time | N/A |
| Altitude | 36000 |
| Route | FJR DCT NG DCT MOLEN DCT MTL DCT ETREK DCT MADOT DCT MOPEM DCT CACHI DCT AVLON DCT OKRIX DCT BRY DCT CLM DCT KOPOR DCT PIREG DCT SOSUN DCT SUBIP UM733 UNDUG |
| Aircraft | B738/M-SDE2E3FGHIRWXY/LB1 |
Departure
| Time | 2026-05-07 13:14 |
|---|---|
| Airport | Béziers Vias airport (LFMU) |
Arrival
| Time | N/A |
|---|---|
| Airport | London Luton Airport (EGGW) |
| Time | Latitude | Longitude | Altitude | Speed | Heading |
|---|---|---|---|---|---|
| 2026-05-07 12:51 | 43.32146 | 3.35381 | 55 ft | 0 kts | 147° |
| 2026-05-07 13:04 | 43.32149 | 3.35377 | 55 ft | 3 kts | 150° |
| 2026-05-07 13:04 | 43.32167 | 3.35369 | 48 ft | 4 kts | 229° |
| 2026-05-07 13:04 | 43.32171 | 3.35398 | 47 ft | 4 kts | 272° |
| 2026-05-07 13:05 | 43.32171 | 3.35413 | 47 ft | 0 kts | 274° |
| 2026-05-07 13:10 | 43.32190 | 3.35329 | 53 ft | 12 kts | 334° |
| 2026-05-07 13:10 | 43.32278 | 3.35332 | 56 ft | 13 kts | 4° |
| 2026-05-07 13:10 | 43.32347 | 3.35382 | 53 ft | 13 kts | 93° |
| 2026-05-07 13:10 | 43.32330 | 3.35543 | 54 ft | 22 kts | 92° |
| 2026-05-07 13:11 | 43.32320 | 3.35746 | 53 ft | 21 kts | 95° |
| 2026-05-07 13:11 | 43.32306 | 3.35947 | 52 ft | 21 kts | 95° |
| 2026-05-07 13:11 | 43.32294 | 3.36141 | 50 ft | 20 kts | 95° |
| 2026-05-07 13:11 | 43.32281 | 3.36330 | 51 ft | 19 kts | 95° |
| 2026-05-07 13:12 | 43.32270 | 3.36512 | 50 ft | 19 kts | 95° |
| 2026-05-07 13:12 | 43.32259 | 3.36666 | 50 ft | 4 kts | 99° |
| 2026-05-07 13:12 | 43.32248 | 3.36704 | 47 ft | 4 kts | 110° |
| 2026-05-07 13:12 | 43.32266 | 3.36712 | 50 ft | 4 kts | 303° |
| 2026-05-07 13:13 | 43.32268 | 3.36669 | 45 ft | 4 kts | 274° |
| 2026-05-07 13:13 | 43.32270 | 3.36627 | 45 ft | 4 kts | 274° |
| 2026-05-07 13:13 | 43.32279 | 3.36439 | 50 ft | 50 kts | 274° |
| 2026-05-07 13:13 | 43.32328 | 3.35579 | 53 ft | 128 kts | 275° |
| 2026-05-07 13:14 | 43.32392 | 3.34095 | 208 ft | 178 kts | 270° |
| 2026-05-07 13:14 | 43.32513 | 3.32252 | 698 ft | 209 kts | 280° |
| 2026-05-07 13:14 | 43.33250 | 3.30523 | 1611 ft | 213 kts | 317° |
| 2026-05-07 13:14 | 43.34509 | 3.29555 | 2593 ft | 205 kts | 346° |
| 2026-05-07 13:15 | 43.35929 | 3.29586 | 3255 ft | 213 kts | 20° |
| 2026-05-07 13:15 | 43.37118 | 3.30919 | 3498 ft | 235 kts | 58° |
| 2026-05-07 13:15 | 43.37845 | 3.32951 | 4065 ft | 244 kts | 65° |
| 2026-05-07 13:15 | 43.38541 | 3.35192 | 4450 ft | 263 kts | 66° |
| 2026-05-07 13:16 | 43.39254 | 3.37550 | 5177 ft | 269 kts | 66° |
| 2026-05-07 13:16 | 43.39981 | 3.39941 | 6082 ft | 271 kts | 65° |
| 2026-05-07 13:16 | 43.40721 | 3.42354 | 6847 ft | 277 kts | 65° |
| 2026-05-07 13:16 | 43.41485 | 3.44833 | 7585 ft | 284 kts | 65° |
| 2026-05-07 13:17 | 43.42266 | 3.47354 | 8370 ft | 288 kts | 65° |
| 2026-05-07 13:17 | 43.43053 | 3.49888 | 9136 ft | 294 kts | 66° |
| 2026-05-07 13:17 | 43.43867 | 3.52499 | 9938 ft | 298 kts | 66° |
| 2026-05-07 13:17 | 43.44697 | 3.55168 | 10484 ft | 311 kts | 66° |
| 2026-05-07 13:18 | 43.45586 | 3.58022 | 10648 ft | 336 kts | 66° |
| 2026-05-07 13:18 | 43.46522 | 3.61029 | 11024 ft | 351 kts | 66° |
| 2026-05-07 13:18 | 43.47493 | 3.64150 | 11709 ft | 356 kts | 66° |
| 2026-05-07 13:18 | 43.48467 | 3.67292 | 12498 ft | 358 kts | 67° |
| 2026-05-07 13:19 | 43.49454 | 3.70472 | 13249 ft | 362 kts | 67° |
| 2026-05-07 13:19 | 43.50452 | 3.73686 | 13953 ft | 367 kts | 67° |
| 2026-05-07 13:19 | 43.51459 | 3.76934 | 14598 ft | 370 kts | 67° |
| 2026-05-07 13:19 | 43.52463 | 3.80179 | 15255 ft | 373 kts | 67° |
| 2026-05-07 13:20 | 43.53486 | 3.83488 | 15910 ft | 377 kts | 67° |
| 2026-05-07 13:20 | 43.54515 | 3.86824 | 16568 ft | 380 kts | 68° |
| 2026-05-07 13:20 | 43.55552 | 3.90188 | 17225 ft | 383 kts | 68° |
| 2026-05-07 13:20 | 43.56600 | 3.93592 | 17862 ft | 386 kts | 68° |
| 2026-05-07 13:21 | 43.57766 | 3.96962 | 18462 ft | 391 kts | 60° |
| 2026-05-07 13:21 | 43.59337 | 4.00049 | 18976 ft | 395 kts | 50° |
| 2026-05-07 13:21 | 43.61149 | 4.02865 | 19488 ft | 399 kts | 47° |
| 2026-05-07 13:21 | 43.63041 | 4.05710 | 19985 ft | 404 kts | 47° |
| 2026-05-07 13:22 | 43.64958 | 4.08586 | 20479 ft | 408 kts | 47° |
| 2026-05-07 13:22 | 43.66879 | 4.11491 | 20983 ft | 411 kts | 47° |
| 2026-05-07 13:22 | 43.68811 | 4.14438 | 21486 ft | 415 kts | 47° |
| 2026-05-07 13:22 | 43.70752 | 4.17421 | 21981 ft | 419 kts | 48° |
| 2026-05-07 13:23 | 43.72689 | 4.20411 | 22448 ft | 423 kts | 48° |
| 2026-05-07 13:23 | 43.74663 | 4.23464 | 22924 ft | 427 kts | 48° |
| 2026-05-07 13:23 | 43.76654 | 4.26549 | 23378 ft | 431 kts | 47° |
| 2026-05-07 13:23 | 43.78659 | 4.29657 | 23810 ft | 435 kts | 47° |
| 2026-05-07 13:24 | 43.80679 | 4.32791 | 24192 ft | 438 kts | 47° |
| 2026-05-07 13:24 | 43.82720 | 4.35960 | 24563 ft | 441 kts | 47° |
| 2026-05-07 13:24 | 43.84933 | 4.38931 | 24918 ft | 444 kts | 37° |
| 2026-05-07 13:24 | 43.87472 | 4.41387 | 25303 ft | 445 kts | 28° |
| 2026-05-07 13:25 | 43.90219 | 4.43236 | 25668 ft | 445 kts | 19° |
| 2026-05-07 13:25 | 43.93120 | 4.44771 | 26043 ft | 447 kts | 18° |
| 2026-05-07 13:25 | 43.96050 | 4.46265 | 26378 ft | 450 kts | 18° |
| 2026-05-07 13:25 | 43.98995 | 4.47789 | 26724 ft | 453 kts | 18° |
| 2026-05-07 13:26 | 44.01958 | 4.49367 | 27072 ft | 456 kts | 19° |
| 2026-05-07 13:26 | 44.04932 | 4.50978 | 27415 ft | 459 kts | 19° |
| 2026-05-07 13:26 | 44.07924 | 4.52595 | 27741 ft | 462 kts | 18° |
| 2026-05-07 13:26 | 44.10897 | 4.54177 | 28060 ft | 464 kts | 18° |
| 2026-05-07 13:27 | 44.13927 | 4.55779 | 28403 ft | 466 kts | 18° |
| 2026-05-07 13:27 | 44.16978 | 4.57392 | 28724 ft | 469 kts | 18° |
| 2026-05-07 13:27 | 44.20047 | 4.59016 | 29045 ft | 471 kts | 18° |
| 2026-05-07 13:27 | 44.23121 | 4.60649 | 29352 ft | 474 kts | 18° |
| 2026-05-07 13:28 | 44.26170 | 4.62272 | 29639 ft | 476 kts | 18° |
| 2026-05-07 13:28 | 44.29272 | 4.63926 | 29917 ft | 478 kts | 18° |
| 2026-05-07 13:28 | 44.32397 | 4.65596 | 30181 ft | 480 kts | 18° |
| 2026-05-07 13:28 | 44.35530 | 4.67272 | 30534 ft | 479 kts | 18° |
| 2026-05-07 13:29 | 44.38637 | 4.68938 | 30948 ft | 477 kts | 17° |
| 2026-05-07 13:29 | 44.41692 | 4.70577 | 31308 ft | 475 kts | 17° |
| 2026-05-07 13:29 | 44.44796 | 4.72242 | 31614 ft | 476 kts | 17° |
| 2026-05-07 13:29 | 44.47896 | 4.73906 | 31908 ft | 476 kts | 17° |
| 2026-05-07 13:30 | 44.50992 | 4.75555 | 32247 ft | 474 kts | 15° |
| 2026-05-07 13:30 | 44.54121 | 4.76713 | 32582 ft | 468 kts | 5° |
| 2026-05-07 13:30 | 44.57346 | 4.77195 | 32917 ft | 462 kts | 357° |
| 2026-05-07 13:30 | 44.60540 | 4.77046 | 33212 ft | 455 kts | 347° |
| 2026-05-07 13:31 | 44.63663 | 4.76383 | 33536 ft | 453 kts | 345° |
| 2026-05-07 13:31 | 44.66763 | 4.75654 | 33835 ft | 451 kts | 345° |
| 2026-05-07 13:31 | 44.69863 | 4.74920 | 34053 ft | 451 kts | 345° |
| 2026-05-07 13:31 | 44.72972 | 4.74189 | 34272 ft | 452 kts | 345° |
| 2026-05-07 13:32 | 44.76036 | 4.73481 | 34498 ft | 451 kts | 346° |
| 2026-05-07 13:32 | 44.79144 | 4.72776 | 34749 ft | 451 kts | 346° |
| 2026-05-07 13:32 | 44.82246 | 4.72081 | 34991 ft | 451 kts | 346° |
| 2026-05-07 13:32 | 44.85349 | 4.71390 | 35161 ft | 452 kts | 346° |
| 2026-05-07 13:33 | 44.88453 | 4.70700 | 35357 ft | 452 kts | 346° |
| 2026-05-07 13:33 | 44.91561 | 4.70008 | 35615 ft | 451 kts | 346° |
| 2026-05-07 13:33 | 44.94655 | 4.69319 | 35842 ft | 450 kts | 346° |
| 2026-05-07 13:33 | 44.97748 | 4.68628 | 35989 ft | 451 kts | 346° |
| 2026-05-07 13:34 | 45.07054 | 4.66542 | 35984 ft | 452 kts | 346° |
| 2026-05-07 13:35 | 45.13238 | 4.65155 | 35993 ft | 447 kts | 346° |
| 2026-05-07 13:35 | 45.19369 | 4.63774 | 35988 ft | 444 kts | 346° |
| 2026-05-07 13:36 | 45.25463 | 4.62384 | 35992 ft | 442 kts | 346° |
| 2026-05-07 13:36 | 45.31537 | 4.60989 | 36008 ft | 441 kts | 346° |
| 2026-05-07 13:37 | 45.37575 | 4.59600 | 36000 ft | 442 kts | 346° |
| 2026-05-07 13:37 | 45.43665 | 4.58197 | 36027 ft | 443 kts | 346° |
| 2026-05-07 13:38 | 45.49735 | 4.56796 | 36029 ft | 445 kts | 346° |
| 2026-05-07 13:38 | 45.55902 | 4.55370 | 36030 ft | 448 kts | 346° |
| 2026-05-07 13:39 | 45.62073 | 4.53940 | 36024 ft | 450 kts | 346° |
| 2026-05-07 13:39 | 45.68225 | 4.52511 | 36021 ft | 451 kts | 346° |
| 2026-05-07 13:40 | 45.74437 | 4.51067 | 36011 ft | 452 kts | 346° |
| 2026-05-07 13:40 | 45.80657 | 4.49620 | 36010 ft | 451 kts | 346° |
| 2026-05-07 13:41 | 45.86841 | 4.48179 | 36003 ft | 449 kts | 346° |
| 2026-05-07 13:41 | 45.92975 | 4.46746 | 35999 ft | 448 kts | 346° |
| 2026-05-07 13:42 | 45.99130 | 4.45304 | 36001 ft | 446 kts | 346° |
| 2026-05-07 13:42 | 46.05226 | 4.43873 | 36003 ft | 444 kts | 346° |
| 2026-05-07 13:43 | 46.11335 | 4.42435 | 36006 ft | 443 kts | 346° |
| 2026-05-07 13:43 | 46.17420 | 4.41000 | 36008 ft | 442 kts | 346° |
| 2026-05-07 13:44 | 46.23449 | 4.39574 | 36011 ft | 441 kts | 346° |
| 2026-05-07 13:44 | 46.29514 | 4.38087 | 36014 ft | 440 kts | 344° |
| 2026-05-07 13:45 | 46.35470 | 4.36086 | 36015 ft | 439 kts | 341° |
| 2026-05-07 13:45 | 46.41365 | 4.33932 | 36020 ft | 439 kts | 342° |
| 2026-05-07 13:46 | 46.47312 | 4.31794 | 36019 ft | 441 kts | 342° |
| 2026-05-07 13:46 | 46.53257 | 4.29693 | 36017 ft | 442 kts | 342° |
| 2026-05-07 13:47 | 46.59244 | 4.27586 | 36018 ft | 443 kts | 342° |
| 2026-05-07 13:47 | 46.65236 | 4.25473 | 36016 ft | 444 kts | 342° |
| 2026-05-07 13:48 | 46.71247 | 4.23347 | 36011 ft | 444 kts | 342° |
| 2026-05-07 13:48 | 46.77270 | 4.21211 | 36017 ft | 444 kts | 342° |
| 2026-05-07 13:49 | 46.83261 | 4.19081 | 36011 ft | 444 kts | 342° |
| 2026-05-07 13:49 | 46.89244 | 4.16949 | 36013 ft | 444 kts | 342° |
| 2026-05-07 13:50 | 46.95256 | 4.14802 | 36020 ft | 443 kts | 342° |
| 2026-05-07 13:50 | 47.01227 | 4.12665 | 36019 ft | 443 kts | 343° |
| 2026-05-07 13:51 | 47.07196 | 4.10463 | 36019 ft | 441 kts | 339° |
| 2026-05-07 13:51 | 47.12900 | 4.07249 | 36036 ft | 437 kts | 334° |
| 2026-05-07 13:52 | 47.17558 | 4.04377 | 36028 ft | 436 kts | 334° |
| 2026-05-07 13:52 | 47.24089 | 4.00407 | 36027 ft | 436 kts | 334° |
| 2026-05-07 13:53 | 47.28768 | 3.97611 | 36026 ft | 436 kts | 335° |
| 2026-05-07 13:53 | 47.34391 | 3.94259 | 36032 ft | 436 kts | 335° |
| 2026-05-07 13:54 | 47.40030 | 3.90891 | 36038 ft | 436 kts | 335° |
| 2026-05-07 13:54 | 47.45661 | 3.87518 | 36034 ft | 437 kts | 335° |
| 2026-05-07 13:55 | 47.51300 | 3.84131 | 36037 ft | 437 kts | 335° |
| 2026-05-07 13:55 | 47.56942 | 3.80736 | 36035 ft | 438 kts | 335° |
| 2026-05-07 13:56 | 47.62572 | 3.77360 | 36037 ft | 438 kts | 335° |
| 2026-05-07 13:56 | 47.68238 | 3.73960 | 36040 ft | 439 kts | 335° |
| 2026-05-07 13:57 | 47.73912 | 3.70546 | 36042 ft | 439 kts | 335° |
| 2026-05-07 13:57 | 47.79550 | 3.67142 | 36040 ft | 440 kts | 335° |
| 2026-05-07 13:58 | 47.85224 | 3.63710 | 36047 ft | 440 kts | 335° |
| 2026-05-07 13:58 | 47.90893 | 3.60271 | 36039 ft | 440 kts | 335° |
| 2026-05-07 13:59 | 47.96566 | 3.56823 | 36053 ft | 439 kts | 335° |
| 2026-05-07 13:59 | 48.02189 | 3.53379 | 36049 ft | 439 kts | 334° |
| 2026-05-07 14:00 | 48.07849 | 3.49892 | 36041 ft | 439 kts | 334° |
| 2026-05-07 14:00 | 48.13510 | 3.46396 | 36046 ft | 439 kts | 334° |
| 2026-05-07 14:01 | 48.19161 | 3.42901 | 36048 ft | 439 kts | 334° |
| 2026-05-07 14:01 | 48.24810 | 3.39399 | 36051 ft | 439 kts | 334° |
| 2026-05-07 14:02 | 48.30425 | 3.35909 | 36044 ft | 439 kts | 334° |
| 2026-05-07 14:02 | 48.36064 | 3.32396 | 36049 ft | 438 kts | 334° |
| 2026-05-07 14:03 | 48.41708 | 3.28870 | 36047 ft | 438 kts | 334° |
| 2026-05-07 14:03 | 48.47335 | 3.25295 | 36045 ft | 438 kts | 334° |
| 2026-05-07 14:04 | 48.52922 | 3.21721 | 36045 ft | 438 kts | 334° |
| 2026-05-07 14:04 | 48.58537 | 3.18124 | 36052 ft | 438 kts | 334° |
| 2026-05-07 14:05 | 48.64166 | 3.14514 | 36052 ft | 438 kts | 334° |
| 2026-05-07 14:05 | 48.69788 | 3.10901 | 36049 ft | 439 kts | 334° |
| 2026-05-07 14:06 | 48.75411 | 3.07277 | 36046 ft | 439 kts | 334° |
| 2026-05-07 14:06 | 48.80996 | 3.03670 | 36048 ft | 439 kts | 334° |
| 2026-05-07 14:07 | 48.86540 | 2.99785 | 36046 ft | 437 kts | 328° |
| 2026-05-07 14:07 | 48.91808 | 2.95178 | 36046 ft | 437 kts | 327° |
| 2026-05-07 14:08 | 48.97051 | 2.90473 | 36050 ft | 437 kts | 327° |
| 2026-05-07 14:08 | 49.02282 | 2.85828 | 36049 ft | 437 kts | 327° |
| 2026-05-07 14:09 | 49.07557 | 2.81173 | 36049 ft | 437 kts | 327° |
| 2026-05-07 14:09 | 49.12839 | 2.76511 | 36047 ft | 437 kts | 327° |
| 2026-05-07 14:10 | 49.18093 | 2.71862 | 36050 ft | 438 kts | 327° |
| 2026-05-07 14:10 | 49.23340 | 2.67206 | 36049 ft | 438 kts | 327° |
| 2026-05-07 14:11 | 49.28618 | 2.62510 | 36048 ft | 438 kts | 327° |
| 2026-05-07 14:11 | 49.33866 | 2.57828 | 36040 ft | 438 kts | 327° |
| 2026-05-07 14:12 | 49.39140 | 2.53112 | 36064 ft | 437 kts | 327° |
| 2026-05-07 14:12 | 49.44374 | 2.48420 | 36073 ft | 437 kts | 327° |
| 2026-05-07 14:13 | 49.49632 | 2.43696 | 36080 ft | 438 kts | 327° |
| 2026-05-07 14:13 | 49.54484 | 2.38105 | 36088 ft | 433 kts | 315° |
| 2026-05-07 14:14 | 49.58912 | 2.31882 | 36071 ft | 433 kts | 315° |
| 2026-05-07 14:14 | 49.63369 | 2.25612 | 36074 ft | 433 kts | 315° |
| 2026-05-07 14:15 | 49.67853 | 2.19369 | 36077 ft | 433 kts | 315° |
| 2026-05-07 14:15 | 49.72336 | 2.13140 | 36064 ft | 433 kts | 315° |
| 2026-05-07 14:16 | 49.76810 | 2.06909 | 36070 ft | 433 kts | 315° |
| 2026-05-07 14:16 | 49.81280 | 2.00663 | 36061 ft | 433 kts | 315° |
| 2026-05-07 14:17 | 49.85708 | 1.94428 | 36065 ft | 432 kts | 312° |
| 2026-05-07 14:17 | 49.89243 | 1.86987 | 36058 ft | 427 kts | 294° |
| 2026-05-07 14:18 | 49.91523 | 1.78518 | 36065 ft | 425 kts | 290° |
| 2026-05-07 14:18 | 49.93715 | 1.69984 | 36063 ft | 425 kts | 290° |
| 2026-05-07 14:19 | 49.95945 | 1.61507 | 36069 ft | 426 kts | 290° |
| 2026-05-07 14:19 | 49.98497 | 1.53185 | 36064 ft | 429 kts | 301° |
| 2026-05-07 14:20 | 50.02416 | 1.46229 | 36072 ft | 433 kts | 316° |
| 2026-05-07 14:20 | 50.06982 | 1.40103 | 36066 ft | 432 kts | 317° |
| 2026-05-07 14:21 | 50.11479 | 1.34107 | 36059 ft | 420 kts | 316° |
| 2026-05-07 14:21 | 50.15876 | 1.28142 | 36070 ft | 417 kts | 316° |
| 2026-05-07 14:22 | 50.20212 | 1.22205 | 36054 ft | 407 kts | 316° |
| 2026-05-07 14:22 | 50.24387 | 1.16471 | 35373 ft | 402 kts | 316° |
| 2026-05-07 14:22 | 50.26494 | 1.13568 | 34801 ft | 404 kts | 315° |
| 2026-05-07 14:23 | 50.28608 | 1.10653 | 34387 ft | 403 kts | 315° |
| 2026-05-07 14:23 | 50.30700 | 1.07769 | 34087 ft | 398 kts | 315° |
| 2026-05-07 14:23 | 50.32737 | 1.04956 | 33739 ft | 393 kts | 315° |
| 2026-05-07 14:23 | 50.34785 | 1.02124 | 33326 ft | 390 kts | 315° |
| 2026-05-07 14:24 | 50.36817 | 0.99310 | 32890 ft | 388 kts | 315° |
| 2026-05-07 14:24 | 50.38835 | 0.96513 | 32476 ft | 386 kts | 315° |
| 2026-05-07 14:24 | 50.40838 | 0.93734 | 32093 ft | 383 kts | 315° |
| 2026-05-07 14:24 | 50.42830 | 0.90968 | 31723 ft | 381 kts | 315° |
| 2026-05-07 14:25 | 50.44809 | 0.88218 | 31334 ft | 378 kts | 316° |
| 2026-05-07 14:25 | 50.46779 | 0.85559 | 30965 ft | 376 kts | 317° |
| 2026-05-07 14:25 | 50.48785 | 0.82905 | 30596 ft | 374 kts | 317° |
| 2026-05-07 14:25 | 50.50768 | 0.80281 | 30244 ft | 372 kts | 317° |
| 2026-05-07 14:26 | 50.52736 | 0.77664 | 29850 ft | 369 kts | 317° |
| 2026-05-07 14:26 | 50.54690 | 0.75054 | 29415 ft | 367 kts | 317° |
| 2026-05-07 14:26 | 50.56636 | 0.72458 | 28969 ft | 365 kts | 317° |
| 2026-05-07 14:26 | 50.58546 | 0.69916 | 28543 ft | 363 kts | 317° |
| 2026-05-07 14:27 | 50.60478 | 0.67342 | 28064 ft | 363 kts | 317° |
| 2026-05-07 14:27 | 50.62404 | 0.64773 | 27632 ft | 361 kts | 317° |
| 2026-05-07 14:27 | 50.64322 | 0.62212 | 27249 ft | 359 kts | 317° |
| 2026-05-07 14:27 | 50.66205 | 0.59694 | 26880 ft | 356 kts | 317° |
| 2026-05-07 14:28 | 50.68093 | 0.57167 | 26522 ft | 353 kts | 317° |
| 2026-05-07 14:28 | 50.69963 | 0.54658 | 26167 ft | 351 kts | 317° |
| 2026-05-07 14:28 | 50.71796 | 0.52199 | 25820 ft | 348 kts | 317° |
| 2026-05-07 14:28 | 50.73636 | 0.49726 | 25477 ft | 346 kts | 317° |
| 2026-05-07 14:29 | 50.75465 | 0.47266 | 25131 ft | 344 kts | 317° |
| 2026-05-07 14:29 | 50.77284 | 0.44818 | 24791 ft | 342 kts | 317° |
| 2026-05-07 14:29 | 50.79095 | 0.42377 | 24450 ft | 340 kts | 317° |
| 2026-05-07 14:29 | 50.80893 | 0.39950 | 24110 ft | 338 kts | 317° |
| 2026-05-07 14:30 | 50.82659 | 0.37560 | 23771 ft | 337 kts | 317° |
| 2026-05-07 14:30 | 50.84442 | 0.35147 | 23377 ft | 336 kts | 317° |
| 2026-05-07 14:30 | 50.86216 | 0.32740 | 22987 ft | 334 kts | 317° |
| 2026-05-07 14:30 | 50.87979 | 0.30348 | 22616 ft | 332 kts | 317° |
| 2026-05-07 14:31 | 50.89727 | 0.27974 | 22271 ft | 329 kts | 317° |
| 2026-05-07 14:31 | 50.91463 | 0.25612 | 21929 ft | 327 kts | 317° |
| 2026-05-07 14:31 | 50.93182 | 0.23272 | 21590 ft | 325 kts | 317° |
| 2026-05-07 14:31 | 50.94870 | 0.20971 | 21262 ft | 322 kts | 317° |
| 2026-05-07 14:32 | 50.96568 | 0.18656 | 20936 ft | 320 kts | 317° |
| 2026-05-07 14:32 | 50.98258 | 0.16349 | 20618 ft | 319 kts | 317° |
| 2026-05-07 14:32 | 50.99935 | 0.14057 | 20291 ft | 317 kts | 317° |
| 2026-05-07 14:32 | 51.01600 | 0.11784 | 20073 ft | 315 kts | 317° |
| 2026-05-07 14:33 | 51.03328 | 0.09672 | 19936 ft | 310 kts | 322° |
| 2026-05-07 14:33 | 51.05110 | 0.07701 | 19807 ft | 316 kts | 323° |
| 2026-05-07 14:33 | 51.06964 | 0.05697 | 19671 ft | 325 kts | 323° |
| 2026-05-07 14:33 | 51.08847 | 0.03660 | 19515 ft | 327 kts | 323° |
| 2026-05-07 14:34 | 51.10689 | 0.01655 | 19364 ft | 324 kts | 323° |
| 2026-05-07 14:34 | 51.12534 | -0.00366 | 19216 ft | 322 kts | 323° |
| 2026-05-07 14:34 | 51.14377 | -0.02396 | 19065 ft | 320 kts | 323° |
| 2026-05-07 14:34 | 51.16206 | -0.04418 | 18927 ft | 319 kts | 323° |
| 2026-05-07 14:35 | 51.18027 | -0.06439 | 18778 ft | 318 kts | 323° |
| 2026-05-07 14:35 | 51.19845 | -0.08460 | 18644 ft | 317 kts | 323° |
| 2026-05-07 14:35 | 51.21637 | -0.10455 | 18503 ft | 318 kts | 323° |
| 2026-05-07 14:35 | 51.23460 | -0.12486 | 18359 ft | 318 kts | 323° |
| 2026-05-07 14:36 | 51.25277 | -0.14513 | 18195 ft | 318 kts | 323° |
| 2026-05-07 14:36 | 51.27092 | -0.16541 | 18043 ft | 318 kts | 323° |
| 2026-05-07 14:36 | 51.28914 | -0.18577 | 17901 ft | 319 kts | 323° |
| 2026-05-07 14:36 | 51.30710 | -0.20587 | 17748 ft | 318 kts | 323° |
| 2026-05-07 14:37 | 51.32526 | -0.22623 | 17604 ft | 318 kts | 323° |
| 2026-05-07 14:37 | 51.36157 | -0.26695 | 17290 ft | 318 kts | 323° |
| 2026-05-07 14:37 | 51.37972 | -0.28733 | 17151 ft | 318 kts | 323° |
| 2026-05-07 14:38 | 51.39170 | -0.30080 | 17054 ft | 318 kts | 323° |
| 2026-05-07 14:38 | 51.40981 | -0.32109 | 16905 ft | 318 kts | 326° |
| 2026-05-07 14:38 | 51.43017 | -0.33467 | 16756 ft | 320 kts | 350° |
| 2026-05-07 14:38 | 51.45200 | -0.33398 | 16619 ft | 320 kts | 12° |
| 2026-05-07 14:39 | 51.47320 | -0.32138 | 16505 ft | 320 kts | 24° |